sensor_id;sensor_type;location;lat;lon;timestamp;P1;durP1;ratioP1;P2;durP2;ratioP2
3601;SDS011;1815;50.950;6.920;2023-09-30T00:00:42;8.80;;;3.73;;
3601;SDS011;1815;50.950;6.920;2023-09-30T00:03:08;10.57;;;4.53;;
3601;SDS011;1815;50.950;6.920;2023-09-30T00:05:36;9.03;;;4.17;;
3601;SDS011;1815;50.950;6.920;2023-09-30T00:08:02;6.50;;;3.73;;
3601;SDS011;1815;50.950;6.920;2023-09-30T00:10:28;8.33;;;3.80;;
3601;SDS011;1815;50.950;6.920;2023-09-30T00:12:55;7.27;;;3.53;;
3601;SDS011;1815;50.950;6.920;2023-09-30T00:15:21;8.70;;;3.60;;
3601;SDS011;1815;50.950;6.920;2023-09-30T00:17:47;5.73;;;3.47;;
3601;SDS011;1815;50.950;6.920;2023-09-30T00:20:13;6.70;;;3.30;;
3601;SDS011;1815;50.950;6.920;2023-09-30T00:22:42;8.40;;;3.40;;
3601;SDS011;1815;50.950;6.920;2023-09-30T00:25:08;7.27;;;3.67;;
3601;SDS011;1815;50.950;6.920;2023-09-30T00:27:35;6.50;;;2.80;;
3601;SDS011;1815;50.950;6.920;2023-09-30T00:30:02;5.27;;;2.90;;
3601;SDS011;1815;50.950;6.920;2023-09-30T00:32:28;6.13;;;2.30;;
3601;SDS011;1815;50.950;6.920;2023-09-30T00:34:54;6.40;;;2.53;;
3601;SDS011;1815;50.950;6.920;2023-09-30T00:37:19;8.10;;;2.97;;
3601;SDS011;1815;50.950;6.920;2023-09-30T00:39:46;7.23;;;3.23;;
3601;SDS011;1815;50.950;6.920;2023-09-30T00:42:11;4.10;;;2.43;;
3601;SDS011;1815;50.950;6.920;2023-09-30T00:44:37;7.50;;;3.00;;
3601;SDS011;1815;50.950;6.920;2023-09-30T00:47:03;6.60;;;3.60;;
3601;SDS011;1815;50.950;6.920;2023-09-30T00:49:30;8.57;;;2.95;;
3601;SDS011;1815;50.950;6.920;2023-09-30T00:51:56;6.43;;;2.63;;
3601;SDS011;1815;50.950;6.920;2023-09-30T00:54:23;3.87;;;2.10;;
3601;SDS011;1815;50.950;6.920;2023-09-30T00:56:50;9.20;;;3.17;;
3601;SDS011;1815;50.950;6.920;2023-09-30T00:59:17;6.10;;;2.70;;
3601;SDS011;1815;50.950;6.920;2023-09-30T01:01:44;7.80;;;3.00;;
3601;SDS011;1815;50.950;6.920;2023-09-30T01:04:11;6.57;;;3.10;;
3601;SDS011;1815;50.950;6.920;2023-09-30T01:06:37;5.53;;;3.17;;
3601;SDS011;1815;50.950;6.920;2023-09-30T01:09:04;9.50;;;3.07;;
3601;SDS011;1815;50.950;6.920;2023-09-30T01:11:30;9.47;;;3.20;;
3601;SDS011;1815;50.950;6.920;2023-09-30T01:13:56;4.40;;;2.70;;
3601;SDS011;1815;50.950;6.920;2023-09-30T01:16:22;5.47;;;2.57;;
3601;SDS011;1815;50.950;6.920;2023-09-30T01:18:48;7.07;;;3.08;;
3601;SDS011;1815;50.950;6.920;2023-09-30T01:21:14;5.23;;;2.07;;
3601;SDS011;1815;50.950;6.920;2023-09-30T01:23:40;7.80;;;3.10;;
3601;SDS011;1815;50.950;6.920;2023-09-30T01:26:11;4.83;;;2.70;;
3601;SDS011;1815;50.950;6.920;2023-09-30T01:28:38;4.00;;;1.90;;
3601;SDS011;1815;50.950;6.920;2023-09-30T01:31:04;6.23;;;2.20;;
3601;SDS011;1815;50.950;6.920;2023-09-30T01:33:30;5.83;;;2.50;;
3601;SDS011;1815;50.950;6.920;2023-09-30T01:35:57;7.43;;;2.30;;
3601;SDS011;1815;50.950;6.920;2023-09-30T01:38:23;10.50;;;2.50;;
3601;SDS011;1815;50.950;6.920;2023-09-30T01:40:49;7.97;;;3.77;;
3601;SDS011;1815;50.950;6.920;2023-09-30T01:43:15;5.00;;;2.50;;
3601;SDS011;1815;50.950;6.920;2023-09-30T01:45:41;6.00;;;2.27;;
3601;SDS011;1815;50.950;6.920;2023-09-30T01:48:08;10.17;;;2.93;;
3601;SDS011;1815;50.950;6.920;2023-09-30T01:50:37;8.30;;;2.33;;
3601;SDS011;1815;50.950;6.920;2023-09-30T01:53:04;9.10;;;2.47;;
3601;SDS011;1815;50.950;6.920;2023-09-30T01:55:34;7.20;;;2.97;;
3601;SDS011;1815;50.950;6.920;2023-09-30T01:58:03;6.17;;;2.17;;
3601;SDS011;1815;50.950;6.920;2023-09-30T02:00:29;6.50;;;2.40;;
3601;SDS011;1815;50.950;6.920;2023-09-30T02:02:55;9.27;;;2.90;;
3601;SDS011;1815;50.950;6.920;2023-09-30T02:05:21;8.00;;;3.07;;
3601;SDS011;1815;50.950;6.920;2023-09-30T02:07:49;8.27;;;3.00;;
3601;SDS011;1815;50.950;6.920;2023-09-30T02:10:16;5.67;;;3.07;;
3601;SDS011;1815;50.950;6.920;2023-09-30T02:12:44;8.37;;;2.83;;
3601;SDS011;1815;50.950;6.920;2023-09-30T02:15:11;8.33;;;2.30;;
3601;SDS011;1815;50.950;6.920;2023-09-30T02:17:37;5.60;;;2.90;;
3601;SDS011;1815;50.950;6.920;2023-09-30T02:20:03;7.20;;;2.57;;
3601;SDS011;1815;50.950;6.920;2023-09-30T02:22:32;8.30;;;3.33;;
3601;SDS011;1815;50.950;6.920;2023-09-30T02:24:58;5.07;;;2.75;;
3601;SDS011;1815;50.950;6.920;2023-09-30T02:27:24;10.00;;;3.47;;
3601;SDS011;1815;50.950;6.920;2023-09-30T02:29:49;5.70;;;2.70;;
3601;SDS011;1815;50.950;6.920;2023-09-30T02:32:16;4.63;;;3.33;;
3601;SDS011;1815;50.950;6.920;2023-09-30T02:34:42;7.20;;;3.20;;
3601;SDS011;1815;50.950;6.920;2023-09-30T02:37:09;9.80;;;3.33;;
3601;SDS011;1815;50.950;6.920;2023-09-30T02:39:35;10.20;;;3.50;;
3601;SDS011;1815;50.950;6.920;2023-09-30T02:42:02;6.23;;;3.53;;
3601;SDS011;1815;50.950;6.920;2023-09-30T02:44:28;9.60;;;3.87;;
3601;SDS011;1815;50.950;6.920;2023-09-30T02:46:55;7.00;;;3.00;;
3601;SDS011;1815;50.950;6.920;2023-09-30T02:49:21;7.57;;;3.80;;
3601;SDS011;1815;50.950;6.920;2023-09-30T02:51:47;7.87;;;3.70;;
3601;SDS011;1815;50.950;6.920;2023-09-30T02:54:12;6.07;;;3.30;;
3601;SDS011;1815;50.950;6.920;2023-09-30T02:56:41;5.32;;;3.10;;
3601;SDS011;1815;50.950;6.920;2023-09-30T02:59:07;9.13;;;3.87;;
3601;SDS011;1815;50.950;6.920;2023-09-30T03:01:33;7.77;;;3.20;;
3601;SDS011;1815;50.950;6.920;2023-09-30T03:03:59;6.00;;;3.53;;
3601;SDS011;1815;50.950;6.920;2023-09-30T03:06:26;5.47;;;3.03;;
3601;SDS011;1815;50.950;6.920;2023-09-30T03:08:51;7.63;;;3.97;;
3601;SDS011;1815;50.950;6.920;2023-09-30T03:11:18;9.03;;;3.43;;
3601;SDS011;1815;50.950;6.920;2023-09-30T03:13:45;10.90;;;3.87;;
3601;SDS011;1815;50.950;6.920;2023-09-30T03:16:11;6.37;;;3.37;;
3601;SDS011;1815;50.950;6.920;2023-09-30T03:18:37;12.00;;;4.53;;
3601;SDS011;1815;50.950;6.920;2023-09-30T03:21:02;7.40;;;3.10;;
3601;SDS011;1815;50.950;6.920;2023-09-30T03:23:39;6.47;;;3.90;;
3601;SDS011;1815;50.950;6.920;2023-09-30T03:26:05;6.90;;;3.60;;
3601;SDS011;1815;50.950;6.920;2023-09-30T03:28:35;6.23;;;3.17;;
3601;SDS011;1815;50.950;6.920;2023-09-30T03:31:02;7.93;;;3.60;;
3601;SDS011;1815;50.950;6.920;2023-09-30T03:33:30;9.57;;;3.87;;
3601;SDS011;1815;50.950;6.920;2023-09-30T03:35:59;9.10;;;3.72;;
3601;SDS011;1815;50.950;6.920;2023-09-30T03:38:29;7.37;;;3.77;;
3601;SDS011;1815;50.950;6.920;2023-09-30T03:40:54;5.67;;;3.67;;
3601;SDS011;1815;50.950;6.920;2023-09-30T03:43:22;5.47;;;3.33;;
3601;SDS011;1815;50.950;6.920;2023-09-30T03:45:48;8.13;;;3.30;;
3601;SDS011;1815;50.950;6.920;2023-09-30T03:48:15;6.30;;;3.83;;
3601;SDS011;1815;50.950;6.920;2023-09-30T03:50:41;11.18;;;4.05;;
3601;SDS011;1815;50.950;6.920;2023-09-30T03:53:08;5.97;;;3.60;;
3601;SDS011;1815;50.950;6.920;2023-09-30T03:55:34;7.60;;;3.83;;
3601;SDS011;1815;50.950;6.920;2023-09-30T03:58:00;7.13;;;3.50;;
3601;SDS011;1815;50.950;6.920;2023-09-30T04:00:27;6.90;;;3.72;;
3601;SDS011;1815;50.950;6.920;2023-09-30T04:02:53;9.30;;;4.07;;
3601;SDS011;1815;50.950;6.920;2023-09-30T04:05:23;9.20;;;4.33;;
3601;SDS011;1815;50.950;6.920;2023-09-30T04:07:54;9.13;;;3.65;;
3601;SDS011;1815;50.950;6.920;2023-09-30T04:10:23;7.15;;;3.63;;
3601;SDS011;1815;50.950;6.920;2023-09-30T04:12:49;8.80;;;4.33;;
3601;SDS011;1815;50.950;6.920;2023-09-30T04:15:14;5.77;;;3.80;;
3601;SDS011;1815;50.950;6.920;2023-09-30T04:17:40;8.10;;;3.80;;
3601;SDS011;1815;50.950;6.920;2023-09-30T04:20:07;8.13;;;4.93;;
3601;SDS011;1815;50.950;6.920;2023-09-30T04:22:35;9.13;;;3.87;;
3601;SDS011;1815;50.950;6.920;2023-09-30T04:25:02;7.10;;;3.60;;
3601;SDS011;1815;50.950;6.920;2023-09-30T04:27:33;8.80;;;3.60;;
3601;SDS011;1815;50.950;6.920;2023-09-30T04:29:59;11.03;;;4.00;;
3601;SDS011;1815;50.950;6.920;2023-09-30T04:32:25;10.93;;;4.57;;
3601;SDS011;1815;50.950;6.920;2023-09-30T04:34:53;7.90;;;4.23;;
3601;SDS011;1815;50.950;6.920;2023-09-30T04:37:18;6.73;;;3.93;;
3601;SDS011;1815;50.950;6.920;2023-09-30T04:39:44;5.40;;;3.40;;
3601;SDS011;1815;50.950;6.920;2023-09-30T04:42:10;7.17;;;4.10;;
3601;SDS011;1815;50.950;6.920;2023-09-30T04:44:37;8.15;;;4.25;;
3601;SDS011;1815;50.950;6.920;2023-09-30T04:47:03;11.03;;;4.50;;
3601;SDS011;1815;50.950;6.920;2023-09-30T04:49:29;10.10;;;5.03;;
3601;SDS011;1815;50.950;6.920;2023-09-30T04:51:56;8.13;;;3.80;;
3601;SDS011;1815;50.950;6.920;2023-09-30T04:54:21;8.60;;;4.80;;
3601;SDS011;1815;50.950;6.920;2023-09-30T04:56:47;7.77;;;4.33;;
3601;SDS011;1815;50.950;6.920;2023-09-30T04:59:13;7.87;;;4.30;;
3601;SDS011;1815;50.950;6.920;2023-09-30T05:01:39;8.30;;;5.30;;
3601;SDS011;1815;50.950;6.920;2023-09-30T05:04:04;11.30;;;4.30;;
3601;SDS011;1815;50.950;6.920;2023-09-30T05:06:30;9.50;;;5.20;;
3601;SDS011;1815;50.950;6.920;2023-09-30T05:08:57;10.40;;;5.20;;
3601;SDS011;1815;50.950;6.920;2023-09-30T05:11:24;11.20;;;5.78;;
3601;SDS011;1815;50.950;6.920;2023-09-30T05:13:49;8.70;;;5.70;;
3601;SDS011;1815;50.950;6.920;2023-09-30T05:16:16;8.98;;;6.00;;
3601;SDS011;1815;50.950;6.920;2023-09-30T05:18:42;8.65;;;5.70;;
3601;SDS011;1815;50.950;6.920;2023-09-30T05:21:08;10.67;;;8.27;;
3601;SDS011;1815;50.950;6.920;2023-09-30T05:23:36;11.97;;;5.90;;
3601;SDS011;1815;50.950;6.920;2023-09-30T05:26:03;8.35;;;5.43;;
3601;SDS011;1815;50.950;6.920;2023-09-30T05:28:29;6.80;;;5.60;;
3601;SDS011;1815;50.950;6.920;2023-09-30T05:30:54;7.27;;;5.27;;
3601;SDS011;1815;50.950;6.920;2023-09-30T05:33:20;10.13;;;5.70;;
3601;SDS011;1815;50.950;6.920;2023-09-30T05:35:47;9.05;;;5.25;;
3601;SDS011;1815;50.950;6.920;2023-09-30T05:38:13;10.37;;;5.63;;
3601;SDS011;1815;50.950;6.920;2023-09-30T05:40:39;9.93;;;5.30;;
3601;SDS011;1815;50.950;6.920;2023-09-30T05:43:06;6.53;;;5.30;;
3601;SDS011;1815;50.950;6.920;2023-09-30T05:45:32;9.97;;;5.20;;
3601;SDS011;1815;50.950;6.920;2023-09-30T05:48:03;7.13;;;4.80;;
3601;SDS011;1815;50.950;6.920;2023-09-30T05:50:34;13.57;;;6.20;;
3601;SDS011;1815;50.950;6.920;2023-09-30T05:53:01;6.47;;;5.20;;
3601;SDS011;1815;50.950;6.920;2023-09-30T05:55:28;6.63;;;4.87;;
3601;SDS011;1815;50.950;6.920;2023-09-30T05:57:54;8.93;;;5.90;;
3601;SDS011;1815;50.950;6.920;2023-09-30T06:00:20;10.00;;;5.10;;
3601;SDS011;1815;50.950;6.920;2023-09-30T06:02:50;12.03;;;6.17;;
3601;SDS011;1815;50.950;6.920;2023-09-30T06:05:17;8.90;;;5.30;;
3601;SDS011;1815;50.950;6.920;2023-09-30T06:07:47;7.63;;;4.90;;
3601;SDS011;1815;50.950;6.920;2023-09-30T06:10:13;10.20;;;5.03;;
3601;SDS011;1815;50.950;6.920;2023-09-30T06:12:50;7.90;;;3.87;;
3601;SDS011;1815;50.950;6.920;2023-09-30T06:15:20;9.80;;;4.57;;
3601;SDS011;1815;50.950;6.920;2023-09-30T06:17:47;8.40;;;4.90;;
3601;SDS011;1815;50.950;6.920;2023-09-30T06:20:14;7.20;;;4.47;;
3601;SDS011;1815;50.950;6.920;2023-09-30T06:22:46;7.50;;;4.87;;
3601;SDS011;1815;50.950;6.920;2023-09-30T06:25:14;6.77;;;4.00;;
3601;SDS011;1815;50.950;6.920;2023-09-30T06:27:43;9.00;;;4.60;;
3601;SDS011;1815;50.950;6.920;2023-09-30T06:30:10;5.47;;;4.23;;
3601;SDS011;1815;50.950;6.920;2023-09-30T06:32:36;7.40;;;4.30;;
3601;SDS011;1815;50.950;6.920;2023-09-30T06:35:03;10.83;;;5.17;;
3601;SDS011;1815;50.950;6.920;2023-09-30T06:37:31;5.10;;;4.30;;
3601;SDS011;1815;50.950;6.920;2023-09-30T06:39:57;9.80;;;5.30;;
3601;SDS011;1815;50.950;6.920;2023-09-30T06:42:26;9.10;;;5.00;;
3601;SDS011;1815;50.950;6.920;2023-09-30T06:44:52;10.87;;;4.93;;
3601;SDS011;1815;50.950;6.920;2023-09-30T06:47:18;8.20;;;4.70;;
3601;SDS011;1815;50.950;6.920;2023-09-30T06:49:44;5.97;;;4.43;;
3601;SDS011;1815;50.950;6.920;2023-09-30T06:52:11;10.40;;;5.10;;
3601;SDS011;1815;50.950;6.920;2023-09-30T06:54:37;10.23;;;5.13;;
3601;SDS011;1815;50.950;6.920;2023-09-30T06:57:02;6.80;;;5.73;;
3601;SDS011;1815;50.950;6.920;2023-09-30T06:59:28;10.90;;;5.87;;
3601;SDS011;1815;50.950;6.920;2023-09-30T07:01:54;5.27;;;4.37;;
3601;SDS011;1815;50.950;6.920;2023-09-30T07:04:20;7.83;;;5.20;;
3601;SDS011;1815;50.950;6.920;2023-09-30T07:06:46;7.90;;;5.10;;
3601;SDS011;1815;50.950;6.920;2023-09-30T07:09:12;7.13;;;5.20;;
3601;SDS011;1815;50.950;6.920;2023-09-30T07:11:38;8.50;;;4.70;;
3601;SDS011;1815;50.950;6.920;2023-09-30T07:14:04;8.40;;;5.67;;
3601;SDS011;1815;50.950;6.920;2023-09-30T07:16:29;10.27;;;6.60;;
3601;SDS011;1815;50.950;6.920;2023-09-30T07:18:55;8.80;;;5.80;;
3601;SDS011;1815;50.950;6.920;2023-09-30T07:21:21;7.57;;;5.73;;
3601;SDS011;1815;50.950;6.920;2023-09-30T07:23:47;9.13;;;6.17;;
3601;SDS011;1815;50.950;6.920;2023-09-30T07:26:13;8.00;;;5.10;;
3601;SDS011;1815;50.950;6.920;2023-09-30T07:28:42;8.70;;;5.70;;
3601;SDS011;1815;50.950;6.920;2023-09-30T07:31:08;8.83;;;5.70;;
3601;SDS011;1815;50.950;6.920;2023-09-30T07:33:34;7.43;;;5.67;;
3601;SDS011;1815;50.950;6.920;2023-09-30T07:36:00;6.63;;;5.80;;
3601;SDS011;1815;50.950;6.920;2023-09-30T07:38:26;8.50;;;5.93;;
3601;SDS011;1815;50.950;6.920;2023-09-30T07:40:52;7.00;;;5.47;;
3601;SDS011;1815;50.950;6.920;2023-09-30T07:43:17;8.20;;;4.80;;
3601;SDS011;1815;50.950;6.920;2023-09-30T07:45:45;5.90;;;4.47;;
3601;SDS011;1815;50.950;6.920;2023-09-30T07:48:11;5.07;;;4.50;;
3601;SDS011;1815;50.950;6.920;2023-09-30T07:50:38;6.60;;;3.70;;
3601;SDS011;1815;50.950;6.920;2023-09-30T07:53:04;4.33;;;3.10;;
3601;SDS011;1815;50.950;6.920;2023-09-30T07:55:29;4.33;;;3.70;;
3601;SDS011;1815;50.950;6.920;2023-09-30T07:57:56;7.03;;;4.20;;
3601;SDS011;1815;50.950;6.920;2023-09-30T08:00:24;4.47;;;3.77;;
3601;SDS011;1815;50.950;6.920;2023-09-30T08:02:50;4.53;;;3.43;;
3601;SDS011;1815;50.950;6.920;2023-09-30T08:05:16;4.97;;;3.90;;
3601;SDS011;1815;50.950;6.920;2023-09-30T08:07:42;5.37;;;3.73;;
3601;SDS011;1815;50.950;6.920;2023-09-30T08:10:08;5.63;;;3.50;;
3601;SDS011;1815;50.950;6.920;2023-09-30T08:12:38;5.63;;;4.37;;
3601;SDS011;1815;50.950;6.920;2023-09-30T08:15:05;6.33;;;3.70;;
3601;SDS011;1815;50.950;6.920;2023-09-30T08:17:31;4.97;;;3.23;;
3601;SDS011;1815;50.950;6.920;2023-09-30T08:19:59;5.43;;;3.90;;
3601;SDS011;1815;50.950;6.920;2023-09-30T08:22:24;5.47;;;3.77;;
3601;SDS011;1815;50.950;6.920;2023-09-30T08:24:53;3.80;;;3.00;;
3601;SDS011;1815;50.950;6.920;2023-09-30T08:27:19;4.70;;;3.40;;
3601;SDS011;1815;50.950;6.920;2023-09-30T08:29:45;5.37;;;3.40;;
3601;SDS011;1815;50.950;6.920;2023-09-30T08:32:11;5.93;;;3.90;;
3601;SDS011;1815;50.950;6.920;2023-09-30T08:34:37;4.20;;;3.10;;
3601;SDS011;1815;50.950;6.920;2023-09-30T08:37:02;4.30;;;2.90;;
3601;SDS011;1815;50.950;6.920;2023-09-30T08:39:28;8.73;;;3.70;;
3601;SDS011;1815;50.950;6.920;2023-09-30T08:41:55;5.03;;;3.37;;
3601;SDS011;1815;50.950;6.920;2023-09-30T08:44:21;5.73;;;3.30;;
3601;SDS011;1815;50.950;6.920;2023-09-30T08:46:47;5.00;;;3.40;;
3601;SDS011;1815;50.950;6.920;2023-09-30T08:49:14;4.00;;;3.17;;
3601;SDS011;1815;50.950;6.920;2023-09-30T08:51:40;4.17;;;3.20;;
3601;SDS011;1815;50.950;6.920;2023-09-30T08:54:06;3.43;;;2.93;;
3601;SDS011;1815;50.950;6.920;2023-09-30T08:56:32;4.90;;;3.67;;
3601;SDS011;1815;50.950;6.920;2023-09-30T08:58:59;4.80;;;3.80;;
3601;SDS011;1815;50.950;6.920;2023-09-30T09:01:26;4.87;;;4.20;;
3601;SDS011;1815;50.950;6.920;2023-09-30T09:03:56;4.33;;;3.47;;
3601;SDS011;1815;50.950;6.920;2023-09-30T09:06:23;4.40;;;3.37;;
3601;SDS011;1815;50.950;6.920;2023-09-30T09:08:50;4.60;;;3.80;;
3601;SDS011;1815;50.950;6.920;2023-09-30T09:11:17;5.27;;;3.50;;
3601;SDS011;1815;50.950;6.920;2023-09-30T09:13:47;6.27;;;3.40;;
3601;SDS011;1815;50.950;6.920;2023-09-30T09:16:21;4.87;;;3.00;;
3601;SDS011;1815;50.950;6.920;2023-09-30T09:18:48;5.10;;;3.93;;
3601;SDS011;1815;50.950;6.920;2023-09-30T09:21:18;6.53;;;4.10;;
3601;SDS011;1815;50.950;6.920;2023-09-30T09:23:49;3.87;;;3.43;;
3601;SDS011;1815;50.950;6.920;2023-09-30T09:28:58;4.80;;;3.83;;
3601;SDS011;1815;50.950;6.920;2023-09-30T09:31:31;4.33;;;3.67;;
3601;SDS011;1815;50.950;6.920;2023-09-30T09:33:59;4.33;;;3.93;;
3601;SDS011;1815;50.950;6.920;2023-09-30T09:36:42;6.90;;;4.90;;
3601;SDS011;1815;50.950;6.920;2023-09-30T09:39:09;5.30;;;4.43;;
3601;SDS011;1815;50.950;6.920;2023-09-30T09:41:52;4.50;;;3.73;;
3601;SDS011;1815;50.950;6.920;2023-09-30T09:44:19;6.30;;;4.07;;
3601;SDS011;1815;50.950;6.920;2023-09-30T09:46:50;6.30;;;4.17;;
3601;SDS011;1815;50.950;6.920;2023-09-30T09:49:16;6.47;;;4.07;;
3601;SDS011;1815;50.950;6.920;2023-09-30T09:51:46;6.30;;;4.13;;
3601;SDS011;1815;50.950;6.920;2023-09-30T09:54:13;5.47;;;4.70;;
3601;SDS011;1815;50.950;6.920;2023-09-30T09:56:41;9.20;;;5.60;;
3601;SDS011;1815;50.950;6.920;2023-09-30T09:59:10;8.67;;;6.17;;
3601;SDS011;1815;50.950;6.920;2023-09-30T10:01:37;6.97;;;5.33;;
3601;SDS011;1815;50.950;6.920;2023-09-30T10:04:05;5.33;;;4.27;;
3601;SDS011;1815;50.950;6.920;2023-09-30T10:06:32;6.03;;;5.43;;
3601;SDS011;1815;50.950;6.920;2023-09-30T10:09:05;6.20;;;5.43;;
3601;SDS011;1815;50.950;6.920;2023-09-30T10:11:35;6.67;;;4.80;;
3601;SDS011;1815;50.950;6.920;2023-09-30T10:14:01;11.43;;;6.70;;
3601;SDS011;1815;50.950;6.920;2023-09-30T10:19:20;6.40;;;3.80;;
3601;SDS011;1815;50.950;6.920;2023-09-30T10:24:45;6.47;;;4.67;;
3601;SDS011;1815;50.950;6.920;2023-09-30T10:40:46;8.10;;;4.17;;
3601;SDS011;1815;50.950;6.920;2023-09-30T10:43:31;5.00;;;3.80;;
3601;SDS011;1815;50.950;6.920;2023-09-30T10:46:29;5.40;;;3.37;;
3601;SDS011;1815;50.950;6.920;2023-09-30T10:48:51;4.70;;;3.20;;
3601;SDS011;1815;50.950;6.920;2023-09-30T10:51:17;5.43;;;3.67;;
3601;SDS011;1815;50.950;6.920;2023-09-30T10:53:47;4.20;;;2.87;;
3601;SDS011;1815;50.950;6.920;2023-09-30T10:56:14;5.57;;;3.00;;
3601;SDS011;1815;50.950;6.920;2023-09-30T11:01:06;6.07;;;2.37;;
3601;SDS011;1815;50.950;6.920;2023-09-30T11:03:32;5.27;;;2.77;;
3601;SDS011;1815;50.950;6.920;2023-09-30T11:05:58;4.80;;;2.30;;
3601;SDS011;1815;50.950;6.920;2023-09-30T11:08:24;5.10;;;2.03;;
3601;SDS011;1815;50.950;6.920;2023-09-30T11:10:55;3.70;;;2.10;;
3601;SDS011;1815;50.950;6.920;2023-09-30T11:13:21;6.90;;;3.27;;
3601;SDS011;1815;50.950;6.920;2023-09-30T11:15:48;6.70;;;3.37;;
3601;SDS011;1815;50.950;6.920;2023-09-30T11:18:26;5.93;;;2.90;;
3601;SDS011;1815;50.950;6.920;2023-09-30T11:20:53;6.80;;;3.40;;
3601;SDS011;1815;50.950;6.920;2023-09-30T11:23:40;5.20;;;2.63;;
3601;SDS011;1815;50.950;6.920;2023-09-30T11:26:06;4.90;;;2.93;;
3601;SDS011;1815;50.950;6.920;2023-09-30T11:28:36;5.13;;;2.43;;
3601;SDS011;1815;50.950;6.920;2023-09-30T11:31:06;4.60;;;2.17;;
3601;SDS011;1815;50.950;6.920;2023-09-30T11:33:53;4.53;;;1.70;;
3601;SDS011;1815;50.950;6.920;2023-09-30T11:36:21;4.30;;;2.03;;
3601;SDS011;1815;50.950;6.920;2023-09-30T11:38:48;3.57;;;1.57;;
3601;SDS011;1815;50.950;6.920;2023-09-30T11:41:15;5.40;;;1.50;;
3601;SDS011;1815;50.950;6.920;2023-09-30T11:46:53;3.77;;;1.60;;
3601;SDS011;1815;50.950;6.920;2023-09-30T11:49:33;3.57;;;1.60;;
3601;SDS011;1815;50.950;6.920;2023-09-30T11:52:04;4.30;;;1.73;;
3601;SDS011;1815;50.950;6.920;2023-09-30T11:54:42;4.83;;;1.67;;
3601;SDS011;1815;50.950;6.920;2023-09-30T11:57:10;3.83;;;1.90;;
3601;SDS011;1815;50.950;6.920;2023-09-30T11:59:37;6.60;;;1.67;;
3601;SDS011;1815;50.950;6.920;2023-09-30T12:02:07;4.40;;;1.60;;
3601;SDS011;1815;50.950;6.920;2023-09-30T12:04:34;4.23;;;1.60;;
3601;SDS011;1815;50.950;6.920;2023-09-30T12:07:03;2.63;;;1.30;;
3601;SDS011;1815;50.950;6.920;2023-09-30T12:09:29;3.50;;;1.40;;
3601;SDS011;1815;50.950;6.920;2023-09-30T12:11:56;4.90;;;1.53;;
3601;SDS011;1815;50.950;6.920;2023-09-30T12:14:23;3.57;;;1.60;;
3601;SDS011;1815;50.950;6.920;2023-09-30T12:16:49;4.47;;;1.53;;
3601;SDS011;1815;50.950;6.920;2023-09-30T12:19:18;4.07;;;1.27;;
3601;SDS011;1815;50.950;6.920;2023-09-30T12:21:44;3.70;;;1.33;;
3601;SDS011;1815;50.950;6.920;2023-09-30T12:24:16;3.00;;;1.33;;
3601;SDS011;1815;50.950;6.920;2023-09-30T12:26:48;4.00;;;1.40;;
3601;SDS011;1815;50.950;6.920;2023-09-30T12:29:15;4.53;;;1.53;;
3601;SDS011;1815;50.950;6.920;2023-09-30T12:31:43;4.73;;;1.60;;
3601;SDS011;1815;50.950;6.920;2023-09-30T12:34:12;4.87;;;1.67;;
3601;SDS011;1815;50.950;6.920;2023-09-30T12:36:38;4.00;;;1.57;;
3601;SDS011;1815;50.950;6.920;2023-09-30T12:39:08;3.40;;;1.37;;
3601;SDS011;1815;50.950;6.920;2023-09-30T12:41:37;2.43;;;1.47;;
3601;SDS011;1815;50.950;6.920;2023-09-30T12:44:05;5.13;;;3.13;;
3601;SDS011;1815;50.950;6.920;2023-09-30T12:46:31;5.70;;;2.93;;
3601;SDS011;1815;50.950;6.920;2023-09-30T12:48:59;3.00;;;1.73;;
3601;SDS011;1815;50.950;6.920;2023-09-30T12:51:29;4.60;;;2.17;;
3601;SDS011;1815;50.950;6.920;2023-09-30T12:53:55;4.13;;;1.93;;
3601;SDS011;1815;50.950;6.920;2023-09-30T12:56:23;5.47;;;2.03;;
3601;SDS011;1815;50.950;6.920;2023-09-30T12:58:48;3.40;;;1.47;;
3601;SDS011;1815;50.950;6.920;2023-09-30T13:01:14;2.80;;;1.20;;
3601;SDS011;1815;50.950;6.920;2023-09-30T13:03:43;2.43;;;1.23;;
3601;SDS011;1815;50.950;6.920;2023-09-30T13:06:12;3.30;;;1.33;;
3601;SDS011;1815;50.950;6.920;2023-09-30T13:08:38;3.00;;;1.47;;
3601;SDS011;1815;50.950;6.920;2023-09-30T13:11:04;4.40;;;1.60;;
3601;SDS011;1815;50.950;6.920;2023-09-30T13:13:30;5.07;;;1.97;;
3601;SDS011;1815;50.950;6.920;2023-09-30T13:15:58;3.27;;;1.70;;
3601;SDS011;1815;50.950;6.920;2023-09-30T13:18:25;5.27;;;1.67;;
3601;SDS011;1815;50.950;6.920;2023-09-30T13:20:50;3.43;;;1.23;;
3601;SDS011;1815;50.950;6.920;2023-09-30T13:23:17;3.20;;;1.50;;
3601;SDS011;1815;50.950;6.920;2023-09-30T13:25:44;4.90;;;3.13;;
3601;SDS011;1815;50.950;6.920;2023-09-30T13:28:10;4.50;;;2.60;;
3601;SDS011;1815;50.950;6.920;2023-09-30T13:30:36;4.33;;;1.70;;
3601;SDS011;1815;50.950;6.920;2023-09-30T13:33:02;5.90;;;1.77;;
3601;SDS011;1815;50.950;6.920;2023-09-30T13:35:28;5.07;;;1.30;;
3601;SDS011;1815;50.950;6.920;2023-09-30T13:37:54;4.40;;;1.40;;
3601;SDS011;1815;50.950;6.920;2023-09-30T13:40:20;3.50;;;1.57;;
3601;SDS011;1815;50.950;6.920;2023-09-30T13:42:45;5.40;;;1.33;;
3601;SDS011;1815;50.950;6.920;2023-09-30T13:45:12;5.03;;;2.07;;
3601;SDS011;1815;50.950;6.920;2023-09-30T13:47:38;5.63;;;2.17;;
3601;SDS011;1815;50.950;6.920;2023-09-30T13:50:04;3.40;;;1.87;;
3601;SDS011;1815;50.950;6.920;2023-09-30T13:52:32;3.90;;;1.57;;
3601;SDS011;1815;50.950;6.920;2023-09-30T13:54:59;4.10;;;1.63;;
3601;SDS011;1815;50.950;6.920;2023-09-30T13:57:25;3.80;;;1.73;;
3601;SDS011;1815;50.950;6.920;2023-09-30T13:59:50;3.80;;;1.47;;
3601;SDS011;1815;50.950;6.920;2023-09-30T14:02:16;5.27;;;2.10;;
3601;SDS011;1815;50.950;6.920;2023-09-30T14:04:42;3.87;;;1.37;;
3601;SDS011;1815;50.950;6.920;2023-09-30T14:07:09;3.87;;;1.70;;
3601;SDS011;1815;50.950;6.920;2023-09-30T14:09:34;2.87;;;1.27;;
3601;SDS011;1815;50.950;6.920;2023-09-30T14:12:00;5.07;;;1.93;;
3601;SDS011;1815;50.950;6.920;2023-09-30T14:14:29;2.70;;;1.17;;
3601;SDS011;1815;50.950;6.920;2023-09-30T14:16:57;5.83;;;3.57;;
3601;SDS011;1815;50.950;6.920;2023-09-30T14:19:22;4.43;;;2.60;;
3601;SDS011;1815;50.950;6.920;2023-09-30T14:21:48;3.83;;;1.80;;
3601;SDS011;1815;50.950;6.920;2023-09-30T14:24:14;6.47;;;1.80;;
3601;SDS011;1815;50.950;6.920;2023-09-30T14:26:40;3.80;;;1.50;;
3601;SDS011;1815;50.950;6.920;2023-09-30T14:29:06;3.23;;;1.10;;
3601;SDS011;1815;50.950;6.920;2023-09-30T14:31:32;3.90;;;1.70;;
3601;SDS011;1815;50.950;6.920;2023-09-30T14:33:57;5.53;;;1.67;;
3601;SDS011;1815;50.950;6.920;2023-09-30T14:36:23;3.50;;;1.30;;
3601;SDS011;1815;50.950;6.920;2023-09-30T14:38:49;6.20;;;1.90;;
3601;SDS011;1815;50.950;6.920;2023-09-30T14:41:15;4.83;;;2.20;;
3601;SDS011;1815;50.950;6.920;2023-09-30T14:43:41;5.30;;;1.80;;
3601;SDS011;1815;50.950;6.920;2023-09-30T14:46:07;2.90;;;1.93;;
3601;SDS011;1815;50.950;6.920;2023-09-30T14:48:33;3.90;;;1.40;;
3601;SDS011;1815;50.950;6.920;2023-09-30T14:50:59;4.17;;;1.50;;
3601;SDS011;1815;50.950;6.920;2023-09-30T14:53:26;3.50;;;1.20;;
3601;SDS011;1815;50.950;6.920;2023-09-30T14:55:51;3.40;;;1.20;;
3601;SDS011;1815;50.950;6.920;2023-09-30T14:58:17;2.80;;;1.10;;
3601;SDS011;1815;50.950;6.920;2023-09-30T15:00:43;2.93;;;1.03;;
3601;SDS011;1815;50.950;6.920;2023-09-30T15:03:13;2.90;;;1.67;;
3601;SDS011;1815;50.950;6.920;2023-09-30T15:05:48;3.70;;;2.10;;
3601;SDS011;1815;50.950;6.920;2023-09-30T15:08:23;6.57;;;2.17;;
3601;SDS011;1815;50.950;6.920;2023-09-30T15:10:49;4.10;;;1.73;;
3601;SDS011;1815;50.950;6.920;2023-09-30T15:13:15;3.47;;;1.77;;
3601;SDS011;1815;50.950;6.920;2023-09-30T15:15:40;2.80;;;1.40;;
3601;SDS011;1815;50.950;6.920;2023-09-30T15:18:06;3.73;;;1.73;;
3601;SDS011;1815;50.950;6.920;2023-09-30T15:20:37;5.20;;;1.90;;
3601;SDS011;1815;50.950;6.920;2023-09-30T15:23:04;3.53;;;1.57;;
3601;SDS011;1815;50.950;6.920;2023-09-30T15:25:29;4.23;;;1.53;;
3601;SDS011;1815;50.950;6.920;2023-09-30T15:27:55;4.57;;;1.20;;
3601;SDS011;1815;50.950;6.920;2023-09-30T15:30:21;3.83;;;1.60;;
3601;SDS011;1815;50.950;6.920;2023-09-30T15:32:48;4.10;;;1.70;;
3601;SDS011;1815;50.950;6.920;2023-09-30T15:35:14;3.47;;;1.40;;
3601;SDS011;1815;50.950;6.920;2023-09-30T15:37:40;3.17;;;1.43;;
3601;SDS011;1815;50.950;6.920;2023-09-30T15:40:06;4.60;;;2.27;;
3601;SDS011;1815;50.950;6.920;2023-09-30T15:42:34;6.20;;;2.20;;